sensor_id;sensor_type;location;lat;lon;timestamp;P1;durP1;ratioP1;P2;durP2;ratioP2
59854;SDS011;45732;52.850;6.896;2023-02-11T00:01:10;25.23;;;11.48;;
59854;SDS011;45732;52.850;6.896;2023-02-11T00:03:41;25.85;;;10.82;;
59854;SDS011;45732;52.850;6.896;2023-02-11T00:06:07;27.52;;;12.35;;
59854;SDS011;45732;52.850;6.896;2023-02-11T00:08:35;27.65;;;11.23;;
59854;SDS011;45732;52.850;6.896;2023-02-11T00:11:02;26.23;;;10.23;;
59854;SDS011;45732;52.850;6.896;2023-02-11T00:13:28;23.75;;;10.52;;
59854;SDS011;45732;52.850;6.896;2023-02-11T00:15:54;21.10;;;9.40;;
59854;SDS011;45732;52.850;6.896;2023-02-11T00:18:20;21.38;;;9.43;;
59854;SDS011;45732;52.850;6.896;2023-02-11T00:20:46;22.98;;;10.27;;
59854;SDS011;45732;52.850;6.896;2023-02-11T00:23:11;24.80;;;9.35;;
59854;SDS011;45732;52.850;6.896;2023-02-11T00:25:41;18.20;;;9.18;;
59854;SDS011;45732;52.850;6.896;2023-02-11T00:28:09;24.77;;;9.48;;
59854;SDS011;45732;52.850;6.896;2023-02-11T00:30:35;26.58;;;9.57;;
59854;SDS011;45732;52.850;6.896;2023-02-11T00:33:01;29.13;;;10.30;;
59854;SDS011;45732;52.850;6.896;2023-02-11T00:35:27;26.05;;;9.85;;
59854;SDS011;45732;52.850;6.896;2023-02-11T00:37:53;28.77;;;9.77;;
59854;SDS011;45732;52.850;6.896;2023-02-11T00:40:20;23.67;;;8.65;;
59854;SDS011;45732;52.850;6.896;2023-02-11T00:42:46;29.45;;;9.65;;
59854;SDS011;45732;52.850;6.896;2023-02-11T00:45:12;24.45;;;9.32;;
59854;SDS011;45732;52.850;6.896;2023-02-11T00:47:37;25.05;;;8.60;;
59854;SDS011;45732;52.850;6.896;2023-02-11T00:50:04;19.15;;;8.05;;
59854;SDS011;45732;52.850;6.896;2023-02-11T00:52:31;23.25;;;9.27;;
59854;SDS011;45732;52.850;6.896;2023-02-11T00:54:57;25.38;;;8.75;;
59854;SDS011;45732;52.850;6.896;2023-02-11T00:57:22;22.38;;;8.38;;
59854;SDS011;45732;52.850;6.896;2023-02-11T00:59:48;18.58;;;8.05;;
59854;SDS011;45732;52.850;6.896;2023-02-11T01:02:14;23.00;;;7.93;;
59854;SDS011;45732;52.850;6.896;2023-02-11T01:04:40;19.80;;;8.75;;
59854;SDS011;45732;52.850;6.896;2023-02-11T01:07:06;24.90;;;8.02;;
59854;SDS011;45732;52.850;6.896;2023-02-11T01:09:32;23.98;;;8.57;;
59854;SDS011;45732;52.850;6.896;2023-02-11T01:11:59;23.95;;;8.07;;
59854;SDS011;45732;52.850;6.896;2023-02-11T01:14:24;23.13;;;8.32;;
59854;SDS011;45732;52.850;6.896;2023-02-11T01:16:50;25.80;;;9.00;;
59854;SDS011;45732;52.850;6.896;2023-02-11T01:19:16;30.63;;;9.18;;
59854;SDS011;45732;52.850;6.896;2023-02-11T01:21:41;25.02;;;8.27;;
59854;SDS011;45732;52.850;6.896;2023-02-11T01:24:07;26.48;;;8.77;;
59854;SDS011;45732;52.850;6.896;2023-02-11T01:26:33;22.25;;;8.13;;
59854;SDS011;45732;52.850;6.896;2023-02-11T01:28:58;26.50;;;8.77;;
59854;SDS011;45732;52.850;6.896;2023-02-11T01:31:25;23.02;;;8.90;;
59854;SDS011;45732;52.850;6.896;2023-02-11T01:33:51;25.58;;;8.95;;
59854;SDS011;45732;52.850;6.896;2023-02-11T01:36:17;27.33;;;8.65;;
59854;SDS011;45732;52.850;6.896;2023-02-11T01:38:42;20.35;;;7.80;;
59854;SDS011;45732;52.850;6.896;2023-02-11T01:41:10;23.02;;;8.50;;
59854;SDS011;45732;52.850;6.896;2023-02-11T01:43:41;26.67;;;8.75;;
59854;SDS011;45732;52.850;6.896;2023-02-11T01:49:15;20.70;;;8.02;;
59854;SDS011;45732;52.850;6.896;2023-02-11T01:54:15;21.95;;;8.90;;
59854;SDS011;45732;52.850;6.896;2023-02-11T01:57:17;22.92;;;8.43;;
59854;SDS011;45732;52.850;6.896;2023-02-11T02:08:23;26.23;;;8.40;;
59854;SDS011;45732;52.850;6.896;2023-02-11T02:10:53;29.07;;;9.03;;
59854;SDS011;45732;52.850;6.896;2023-02-11T02:13:23;23.70;;;8.57;;
59854;SDS011;45732;52.850;6.896;2023-02-11T02:15:52;21.08;;;9.32;;
59854;SDS011;45732;52.850;6.896;2023-02-11T02:26:52;21.52;;;9.80;;
59854;SDS011;45732;52.850;6.896;2023-02-11T02:29:30;25.40;;;9.57;;
59854;SDS011;45732;52.850;6.896;2023-02-11T02:40:04;28.13;;;10.88;;
59854;SDS011;45732;52.850;6.896;2023-02-11T02:42:35;28.30;;;11.85;;
59854;SDS011;45732;52.850;6.896;2023-02-11T02:45:03;23.63;;;11.23;;
59854;SDS011;45732;52.850;6.896;2023-02-11T02:47:31;21.45;;;10.65;;
59854;SDS011;45732;52.850;6.896;2023-02-11T02:49:56;27.10;;;11.52;;
59854;SDS011;45732;52.850;6.896;2023-02-11T03:03:20;29.70;;;12.18;;
59854;SDS011;45732;52.850;6.896;2023-02-11T03:06:01;27.25;;;12.75;;
59854;SDS011;45732;52.850;6.896;2023-02-11T03:08:56;21.85;;;12.05;;
59854;SDS011;45732;52.850;6.896;2023-02-11T03:11:23;27.65;;;12.30;;
59854;SDS011;45732;52.850;6.896;2023-02-11T03:13:50;27.58;;;13.90;;
59854;SDS011;45732;52.850;6.896;2023-02-11T03:16:20;25.77;;;13.32;;
59854;SDS011;45732;52.850;6.896;2023-02-11T03:18:52;27.20;;;12.93;;
59854;SDS011;45732;52.850;6.896;2023-02-11T03:21:29;26.15;;;13.27;;
59854;SDS011;45732;52.850;6.896;2023-02-11T03:23:59;24.45;;;13.52;;
59854;SDS011;45732;52.850;6.896;2023-02-11T03:26:30;27.08;;;13.20;;
59854;SDS011;45732;52.850;6.896;2023-02-11T03:29:12;29.13;;;13.65;;
59854;SDS011;45732;52.850;6.896;2023-02-11T03:37:22;26.23;;;13.43;;
59854;SDS011;45732;52.850;6.896;2023-02-11T03:40:07;26.33;;;14.43;;
59854;SDS011;45732;52.850;6.896;2023-02-11T03:42:41;28.40;;;13.98;;
59854;SDS011;45732;52.850;6.896;2023-02-11T03:45:11;30.55;;;14.82;;
59854;SDS011;45732;52.850;6.896;2023-02-11T03:47:42;29.92;;;15.35;;
59854;SDS011;45732;52.850;6.896;2023-02-11T03:50:13;30.23;;;14.48;;
59854;SDS011;45732;52.850;6.896;2023-02-11T03:52:40;34.90;;;15.13;;
59854;SDS011;45732;52.850;6.896;2023-02-11T03:55:14;30.08;;;15.35;;
59854;SDS011;45732;52.850;6.896;2023-02-11T03:57:42;33.90;;;14.95;;
59854;SDS011;45732;52.850;6.896;2023-02-11T04:00:08;25.35;;;15.25;;
59854;SDS011;45732;52.850;6.896;2023-02-11T04:02:35;30.15;;;15.95;;
59854;SDS011;45732;52.850;6.896;2023-02-11T04:05:02;29.63;;;15.52;;
59854;SDS011;45732;52.850;6.896;2023-02-11T04:07:29;29.40;;;15.55;;
59854;SDS011;45732;52.850;6.896;2023-02-11T04:09:55;30.55;;;15.60;;
59854;SDS011;45732;52.850;6.896;2023-02-11T04:12:21;32.33;;;16.08;;
59854;SDS011;45732;52.850;6.896;2023-02-11T04:14:46;26.73;;;15.98;;
59854;SDS011;45732;52.850;6.896;2023-02-11T04:17:12;26.10;;;16.20;;
59854;SDS011;45732;52.850;6.896;2023-02-11T04:19:38;29.52;;;17.00;;
59854;SDS011;45732;52.850;6.896;2023-02-11T04:22:03;27.15;;;16.73;;
59854;SDS011;45732;52.850;6.896;2023-02-11T04:24:30;34.33;;;16.20;;
59854;SDS011;45732;52.850;6.896;2023-02-11T04:26:56;32.00;;;17.35;;
59854;SDS011;45732;52.850;6.896;2023-02-11T04:29:21;33.40;;;16.92;;
59854;SDS011;45732;52.850;6.896;2023-02-11T04:31:47;34.78;;;17.92;;
59854;SDS011;45732;52.850;6.896;2023-02-11T04:34:13;29.80;;;17.08;;
59854;SDS011;45732;52.850;6.896;2023-02-11T04:36:39;30.17;;;18.13;;
59854;SDS011;45732;52.850;6.896;2023-02-11T04:39:05;34.97;;;18.92;;
59854;SDS011;45732;52.850;6.896;2023-02-11T04:41:31;32.53;;;18.60;;
59854;SDS011;45732;52.850;6.896;2023-02-11T04:43:57;33.58;;;18.13;;
59854;SDS011;45732;52.850;6.896;2023-02-11T04:46:22;29.45;;;17.98;;
59854;SDS011;45732;52.850;6.896;2023-02-11T04:48:48;29.98;;;18.65;;
59854;SDS011;45732;52.850;6.896;2023-02-11T04:51:14;34.33;;;18.73;;
59854;SDS011;45732;52.850;6.896;2023-02-11T04:53:40;33.50;;;18.70;;
59854;SDS011;45732;52.850;6.896;2023-02-11T04:56:05;32.55;;;18.92;;
59854;SDS011;45732;52.850;6.896;2023-02-11T04:58:31;34.08;;;19.65;;
59854;SDS011;45732;52.850;6.896;2023-02-11T05:01:04;35.17;;;19.15;;
59854;SDS011;45732;52.850;6.896;2023-02-11T05:03:31;33.78;;;20.08;;
59854;SDS011;45732;52.850;6.896;2023-02-11T05:05:56;34.95;;;19.98;;
59854;SDS011;45732;52.850;6.896;2023-02-11T05:08:22;36.70;;;19.45;;
59854;SDS011;45732;52.850;6.896;2023-02-11T05:10:47;38.28;;;20.38;;
59854;SDS011;45732;52.850;6.896;2023-02-11T05:13:13;39.47;;;19.88;;
59854;SDS011;45732;52.850;6.896;2023-02-11T05:15:39;35.75;;;19.38;;
59854;SDS011;45732;52.850;6.896;2023-02-11T05:18:05;33.38;;;20.15;;
59854;SDS011;45732;52.850;6.896;2023-02-11T05:20:30;37.45;;;20.20;;
59854;SDS011;45732;52.850;6.896;2023-02-11T05:22:56;36.45;;;20.15;;
59854;SDS011;45732;52.850;6.896;2023-02-11T05:25:21;39.53;;;20.98;;
59854;SDS011;45732;52.850;6.896;2023-02-11T05:27:47;37.58;;;21.55;;
59854;SDS011;45732;52.850;6.896;2023-02-11T05:30:13;34.38;;;20.55;;
59854;SDS011;45732;52.850;6.896;2023-02-11T05:32:38;39.05;;;20.65;;
59854;SDS011;45732;52.850;6.896;2023-02-11T05:35:04;35.97;;;19.45;;
59854;SDS011;45732;52.850;6.896;2023-02-11T05:37:30;34.97;;;20.05;;
59854;SDS011;45732;52.850;6.896;2023-02-11T05:39:56;37.17;;;20.92;;
59854;SDS011;45732;52.850;6.896;2023-02-11T05:42:21;39.75;;;21.02;;
59854;SDS011;45732;52.850;6.896;2023-02-11T05:44:47;35.22;;;21.42;;
59854;SDS011;45732;52.850;6.896;2023-02-11T05:47:13;34.55;;;20.42;;
59854;SDS011;45732;52.850;6.896;2023-02-11T05:49:38;40.85;;;21.27;;
59854;SDS011;45732;52.850;6.896;2023-02-11T05:52:04;35.78;;;21.17;;
59854;SDS011;45732;52.850;6.896;2023-02-11T05:54:30;38.22;;;21.73;;
59854;SDS011;45732;52.850;6.896;2023-02-11T05:56:56;36.50;;;21.73;;
59854;SDS011;45732;52.850;6.896;2023-02-11T05:59:21;38.13;;;21.58;;
59854;SDS011;45732;52.850;6.896;2023-02-11T06:01:47;39.45;;;21.88;;
59854;SDS011;45732;52.850;6.896;2023-02-11T06:04:13;37.17;;;20.80;;
59854;SDS011;45732;52.850;6.896;2023-02-11T06:06:38;37.30;;;22.10;;
59854;SDS011;45732;52.850;6.896;2023-02-11T06:09:04;37.70;;;21.98;;
59854;SDS011;45732;52.850;6.896;2023-02-11T06:11:30;33.03;;;21.60;;
59854;SDS011;45732;52.850;6.896;2023-02-11T06:13:55;43.38;;;22.00;;
59854;SDS011;45732;52.850;6.896;2023-02-11T06:16:21;37.40;;;21.77;;
59854;SDS011;45732;52.850;6.896;2023-02-11T06:18:47;43.17;;;22.70;;
59854;SDS011;45732;52.850;6.896;2023-02-11T06:21:12;34.40;;;20.10;;
59854;SDS011;45732;52.850;6.896;2023-02-11T06:23:38;37.72;;;21.50;;
59854;SDS011;45732;52.850;6.896;2023-02-11T06:26:05;40.03;;;22.02;;
59854;SDS011;45732;52.850;6.896;2023-02-11T06:28:32;38.05;;;21.98;;
59854;SDS011;45732;52.850;6.896;2023-02-11T06:30:58;38.10;;;21.77;;
59854;SDS011;45732;52.850;6.896;2023-02-11T06:33:30;41.78;;;23.60;;
59854;SDS011;45732;52.850;6.896;2023-02-11T06:35:56;40.55;;;23.10;;
59854;SDS011;45732;52.850;6.896;2023-02-11T06:38:22;42.33;;;22.38;;
59854;SDS011;45732;52.850;6.896;2023-02-11T06:40:48;41.85;;;23.98;;
59854;SDS011;45732;52.850;6.896;2023-02-11T06:43:14;40.60;;;23.65;;
59854;SDS011;45732;52.850;6.896;2023-02-11T06:45:40;46.25;;;24.85;;
59854;SDS011;45732;52.850;6.896;2023-02-11T06:48:06;39.42;;;23.90;;
59854;SDS011;45732;52.850;6.896;2023-02-11T06:50:32;41.63;;;24.27;;
59854;SDS011;45732;52.850;6.896;2023-02-11T06:52:58;38.92;;;24.33;;
59854;SDS011;45732;52.850;6.896;2023-02-11T06:55:24;43.97;;;24.83;;
59854;SDS011;45732;52.850;6.896;2023-02-11T06:57:50;44.97;;;25.52;;
59854;SDS011;45732;52.850;6.896;2023-02-11T07:00:16;44.60;;;25.35;;
59854;SDS011;45732;52.850;6.896;2023-02-11T07:02:42;41.85;;;24.77;;
59854;SDS011;45732;52.850;6.896;2023-02-11T07:05:08;43.65;;;25.55;;
59854;SDS011;45732;52.850;6.896;2023-02-11T07:07:35;49.72;;;26.60;;
59854;SDS011;45732;52.850;6.896;2023-02-11T07:10:01;42.85;;;25.70;;
59854;SDS011;45732;52.850;6.896;2023-02-11T07:12:28;43.53;;;26.25;;
59854;SDS011;45732;52.850;6.896;2023-02-11T07:14:55;39.78;;;26.45;;
59854;SDS011;45732;52.850;6.896;2023-02-11T07:17:21;46.42;;;26.88;;
59854;SDS011;45732;52.850;6.896;2023-02-11T07:19:46;45.40;;;27.00;;
59854;SDS011;45732;52.850;6.896;2023-02-11T07:22:12;42.85;;;27.40;;
59854;SDS011;45732;52.850;6.896;2023-02-11T07:24:38;43.80;;;28.30;;
59854;SDS011;45732;52.850;6.896;2023-02-11T07:27:04;45.95;;;27.83;;
59854;SDS011;45732;52.850;6.896;2023-02-11T07:29:30;47.33;;;27.17;;
59854;SDS011;45732;52.850;6.896;2023-02-11T07:31:55;45.35;;;27.42;;
59854;SDS011;45732;52.850;6.896;2023-02-11T07:34:21;50.90;;;28.30;;
59854;SDS011;45732;52.850;6.896;2023-02-11T07:36:47;45.42;;;27.23;;
59854;SDS011;45732;52.850;6.896;2023-02-11T07:39:13;48.08;;;28.02;;
59854;SDS011;45732;52.850;6.896;2023-02-11T07:41:39;45.35;;;27.00;;
59854;SDS011;45732;52.850;6.896;2023-02-11T07:44:04;44.28;;;26.60;;
59854;SDS011;45732;52.850;6.896;2023-02-11T07:46:31;45.75;;;25.80;;
59854;SDS011;45732;52.850;6.896;2023-02-11T07:48:58;44.40;;;26.30;;
59854;SDS011;45732;52.850;6.896;2023-02-11T07:51:25;39.88;;;24.92;;
59854;SDS011;45732;52.850;6.896;2023-02-11T07:53:53;44.83;;;25.98;;
59854;SDS011;45732;52.850;6.896;2023-02-11T07:56:20;41.30;;;25.38;;
59854;SDS011;45732;52.850;6.896;2023-02-11T07:58:46;41.65;;;25.30;;
59854;SDS011;45732;52.850;6.896;2023-02-11T08:01:20;38.60;;;25.48;;
59854;SDS011;45732;52.850;6.896;2023-02-11T08:03:52;43.47;;;24.45;;
59854;SDS011;45732;52.850;6.896;2023-02-11T08:06:21;38.95;;;24.45;;
59854;SDS011;45732;52.850;6.896;2023-02-11T08:08:48;41.00;;;24.90;;
59854;SDS011;45732;52.850;6.896;2023-02-11T08:11:16;40.00;;;24.60;;
59854;SDS011;45732;52.850;6.896;2023-02-11T08:13:42;40.60;;;25.05;;
59854;SDS011;45732;52.850;6.896;2023-02-11T08:16:08;40.20;;;23.95;;
59854;SDS011;45732;52.850;6.896;2023-02-11T08:18:40;39.45;;;23.27;;
59854;SDS011;45732;52.850;6.896;2023-02-11T08:21:07;37.28;;;24.48;;
59854;SDS011;45732;52.850;6.896;2023-02-11T08:23:37;41.80;;;24.85;;
59854;SDS011;45732;52.850;6.896;2023-02-11T08:26:04;36.58;;;24.42;;
59854;SDS011;45732;52.850;6.896;2023-02-11T08:28:34;34.50;;;23.35;;
59854;SDS011;45732;52.850;6.896;2023-02-11T08:31:04;36.25;;;22.90;;
59854;SDS011;45732;52.850;6.896;2023-02-11T08:33:31;39.60;;;23.40;;
59854;SDS011;45732;52.850;6.896;2023-02-11T08:35:58;36.50;;;23.17;;
59854;SDS011;45732;52.850;6.896;2023-02-11T08:38:24;44.05;;;23.80;;
59854;SDS011;45732;52.850;6.896;2023-02-11T08:40:50;35.08;;;22.42;;
59854;SDS011;45732;52.850;6.896;2023-02-11T08:43:16;40.20;;;23.05;;
59854;SDS011;45732;52.850;6.896;2023-02-11T08:45:41;36.45;;;22.52;;
59854;SDS011;45732;52.850;6.896;2023-02-11T08:48:07;33.58;;;21.80;;
59854;SDS011;45732;52.850;6.896;2023-02-11T08:50:32;35.28;;;21.33;;
59854;SDS011;45732;52.850;6.896;2023-02-11T08:52:58;34.03;;;21.52;;
59854;SDS011;45732;52.850;6.896;2023-02-11T08:55:24;37.10;;;22.33;;
59854;SDS011;45732;52.850;6.896;2023-02-11T08:57:50;38.25;;;22.48;;
59854;SDS011;45732;52.850;6.896;2023-02-11T09:00:16;33.80;;;20.75;;
59854;SDS011;45732;52.850;6.896;2023-02-11T09:02:42;38.13;;;21.90;;
59854;SDS011;45732;52.850;6.896;2023-02-11T09:05:08;32.22;;;21.58;;
59854;SDS011;45732;52.850;6.896;2023-02-11T09:07:34;32.33;;;20.67;;
59854;SDS011;45732;52.850;6.896;2023-02-11T09:09:59;35.25;;;21.20;;
59854;SDS011;45732;52.850;6.896;2023-02-11T09:12:26;32.83;;;21.23;;
59854;SDS011;45732;52.850;6.896;2023-02-11T09:14:51;33.75;;;21.50;;
59854;SDS011;45732;52.850;6.896;2023-02-11T09:17:17;31.42;;;20.20;;
59854;SDS011;45732;52.850;6.896;2023-02-11T09:19:43;32.10;;;20.27;;
59854;SDS011;45732;52.850;6.896;2023-02-11T09:22:08;35.10;;;19.70;;
59854;SDS011;45732;52.850;6.896;2023-02-11T09:24:34;33.25;;;20.13;;
59854;SDS011;45732;52.850;6.896;2023-02-11T09:27:00;31.48;;;19.80;;
59854;SDS011;45732;52.850;6.896;2023-02-11T09:29:26;33.92;;;19.60;;
59854;SDS011;45732;52.850;6.896;2023-02-11T09:31:52;34.33;;;19.58;;
59854;SDS011;45732;52.850;6.896;2023-02-11T09:34:17;30.02;;;20.17;;
59854;SDS011;45732;52.850;6.896;2023-02-11T09:36:43;30.58;;;18.90;;
59854;SDS011;45732;52.850;6.896;2023-02-11T09:39:12;31.60;;;20.10;;
59854;SDS011;45732;52.850;6.896;2023-02-11T09:41:46;32.47;;;19.70;;
59854;SDS011;45732;52.850;6.896;2023-02-11T09:44:30;31.02;;;18.55;;
59854;SDS011;45732;52.850;6.896;2023-02-11T09:50:01;34.28;;;18.20;;
59854;SDS011;45732;52.850;6.896;2023-02-11T09:55:17;26.50;;;17.17;;
59854;SDS011;45732;52.850;6.896;2023-02-11T09:57:50;27.55;;;16.83;;
59854;SDS011;45732;52.850;6.896;2023-02-11T10:00:18;29.70;;;16.95;;
59854;SDS011;45732;52.850;6.896;2023-02-11T10:02:51;26.60;;;15.95;;
59854;SDS011;45732;52.850;6.896;2023-02-11T10:05:32;28.17;;;16.45;;
59854;SDS011;45732;52.850;6.896;2023-02-11T10:08:07;27.38;;;16.38;;
59854;SDS011;45732;52.850;6.896;2023-02-11T10:10:49;26.20;;;16.02;;
59854;SDS011;45732;52.850;6.896;2023-02-11T10:13:28;26.90;;;16.50;;
59854;SDS011;45732;52.850;6.896;2023-02-11T10:21:39;23.75;;;15.02;;
59854;SDS011;45732;52.850;6.896;2023-02-11T10:24:22;24.80;;;15.05;;
59854;SDS011;45732;52.850;6.896;2023-02-11T10:26:49;25.17;;;15.07;;
59854;SDS011;45732;52.850;6.896;2023-02-11T10:29:36;25.05;;;14.20;;
59854;SDS011;45732;52.850;6.896;2023-02-11T10:32:14;22.08;;;13.82;;
59854;SDS011;45732;52.850;6.896;2023-02-11T10:34:49;22.10;;;13.43;;
59854;SDS011;45732;52.850;6.896;2023-02-11T10:37:16;20.17;;;12.90;;
59854;SDS011;45732;52.850;6.896;2023-02-11T10:39:42;21.33;;;13.45;;
59854;SDS011;45732;52.850;6.896;2023-02-11T10:42:09;23.05;;;13.90;;
59854;SDS011;45732;52.850;6.896;2023-02-11T10:44:38;22.25;;;12.43;;
59854;SDS011;45732;52.850;6.896;2023-02-11T10:47:11;23.23;;;13.05;;
59854;SDS011;45732;52.850;6.896;2023-02-11T10:49:43;23.35;;;11.93;;
59854;SDS011;45732;52.850;6.896;2023-02-11T10:54:38;21.65;;;11.50;;
59854;SDS011;45732;52.850;6.896;2023-02-11T10:57:04;19.42;;;12.25;;
59854;SDS011;45732;52.850;6.896;2023-02-11T10:59:36;24.90;;;12.65;;
59854;SDS011;45732;52.850;6.896;2023-02-11T11:02:22;21.42;;;11.88;;
59854;SDS011;45732;52.850;6.896;2023-02-11T11:04:56;18.38;;;11.20;;
59854;SDS011;45732;52.850;6.896;2023-02-11T11:07:25;20.23;;;11.23;;
59854;SDS011;45732;52.850;6.896;2023-02-11T11:09:56;20.67;;;11.55;;
59854;SDS011;45732;52.850;6.896;2023-02-11T11:12:38;20.27;;;11.55;;
59854;SDS011;45732;52.850;6.896;2023-02-11T11:15:14;22.77;;;11.68;;
59854;SDS011;45732;52.850;6.896;2023-02-11T11:17:42;17.88;;;11.00;;
59854;SDS011;45732;52.850;6.896;2023-02-11T11:20:15;21.38;;;11.02;;
59854;SDS011;45732;52.850;6.896;2023-02-11T11:25:38;16.00;;;9.65;;
59854;SDS011;45732;52.850;6.896;2023-02-11T11:28:15;18.20;;;9.93;;
59854;SDS011;45732;52.850;6.896;2023-02-11T11:30:45;16.85;;;9.75;;
59854;SDS011;45732;52.850;6.896;2023-02-11T11:33:14;21.55;;;10.73;;
59854;SDS011;45732;52.850;6.896;2023-02-11T11:36:05;16.58;;;10.30;;
59854;SDS011;45732;52.850;6.896;2023-02-11T11:41:13;19.65;;;10.15;;
59854;SDS011;45732;52.850;6.896;2023-02-11T11:43:58;20.27;;;10.13;;
59854;SDS011;45732;52.850;6.896;2023-02-11T11:46:34;20.85;;;9.70;;
59854;SDS011;45732;52.850;6.896;2023-02-11T11:49:04;18.58;;;9.57;;
59854;SDS011;45732;52.850;6.896;2023-02-11T11:51:53;20.17;;;9.98;;
59854;SDS011;45732;52.850;6.896;2023-02-11T11:54:35;20.75;;;9.95;;
59854;SDS011;45732;52.850;6.896;2023-02-11T11:57:06;20.23;;;10.50;;
59854;SDS011;45732;52.850;6.896;2023-02-11T11:59:38;19.40;;;9.95;;
59854;SDS011;45732;52.850;6.896;2023-02-11T12:15:41;16.90;;;8.65;;
59854;SDS011;45732;52.850;6.896;2023-02-11T12:23:47;18.50;;;8.68;;
59854;SDS011;45732;52.850;6.896;2023-02-11T12:26:28;20.95;;;8.75;;
59854;SDS011;45732;52.850;6.896;2023-02-11T12:49:17;15.70;;;8.02;;
59854;SDS011;45732;52.850;6.896;2023-02-11T12:59:19;15.48;;;7.43;;
59854;SDS011;45732;52.850;6.896;2023-02-11T13:02:15;16.88;;;7.35;;
59854;SDS011;45732;52.850;6.896;2023-02-11T13:04:48;17.63;;;7.45;;
59854;SDS011;45732;52.850;6.896;2023-02-11T13:07:27;16.48;;;7.40;;
59854;SDS011;45732;52.850;6.896;2023-02-11T13:10:00;20.42;;;7.60;;
59854;SDS011;45732;52.850;6.896;2023-02-11T13:12:32;17.05;;;7.10;;
59854;SDS011;45732;52.850;6.896;2023-02-11T13:15:19;14.80;;;6.63;;
59854;SDS011;45732;52.850;6.896;2023-02-11T13:20:26;16.88;;;6.93;;
59854;SDS011;45732;52.850;6.896;2023-02-11T13:29:27;19.08;;;6.90;;
59854;SDS011;45732;52.850;6.896;2023-02-11T13:31:33;11.63;;;5.82;;
59854;SDS011;45732;52.850;6.896;2023-02-11T13:33:59;15.70;;;5.43;;
59854;SDS011;45732;52.850;6.896;2023-02-11T13:36:25;16.48;;;5.53;;
59854;SDS011;45732;52.850;6.896;2023-02-11T13:38:53;13.63;;;5.18;;
59854;SDS011;45732;52.850;6.896;2023-02-11T13:41:26;17.65;;;5.05;;
59854;SDS011;45732;52.850;6.896;2023-02-11T13:44:00;14.70;;;4.65;;
59854;SDS011;45732;52.850;6.896;2023-02-11T13:46:26;16.30;;;5.03;;
59854;SDS011;45732;52.850;6.896;2023-02-11T13:48:54;12.20;;;4.53;;
59854;SDS011;45732;52.850;6.896;2023-02-11T13:51:41;16.13;;;5.60;;
59854;SDS011;45732;52.850;6.896;2023-02-11T13:54:06;17.17;;;5.10;;
59854;SDS011;45732;52.850;6.896;2023-02-11T13:56:42;15.93;;;5.00;;
59854;SDS011;45732;52.850;6.896;2023-02-11T14:02:02;14.20;;;5.35;;
59854;SDS011;45732;52.850;6.896;2023-02-11T14:10:51;15.32;;;4.70;;
59854;SDS011;45732;52.850;6.896;2023-02-11T14:13:27;14.00;;;4.57;;
59854;SDS011;45732;52.850;6.896;2023-02-11T14:23:46;17.95;;;5.05;;
59854;SDS011;45732;52.850;6.896;2023-02-11T14:28:43;11.63;;;3.70;;
59854;SDS011;45732;52.850;6.896;2023-02-11T14:31:24;13.48;;;4.43;;
59854;SDS011;45732;52.850;6.896;2023-02-11T14:39:28;16.23;;;4.43;;
59854;SDS011;45732;52.850;6.896;2023-02-11T14:41:56;11.30;;;3.80;;
59854;SDS011;45732;52.850;6.896;2023-02-11T14:44:26;14.98;;;4.45;;
59854;SDS011;45732;52.850;6.896;2023-02-11T14:46:54;11.77;;;3.90;;
59854;SDS011;45732;52.850;6.896;2023-02-11T14:49:28;13.15;;;4.50;;
59854;SDS011;45732;52.850;6.896;2023-02-11T14:52:25;12.70;;;4.33;;
59854;SDS011;45732;52.850;6.896;2023-02-11T15:00:46;12.40;;;4.05;;
59854;SDS011;45732;52.850;6.896;2023-02-11T15:03:28;14.82;;;4.65;;
59854;SDS011;45732;52.850;6.896;2023-02-11T15:06:04;15.77;;;4.30;;
59854;SDS011;45732;52.850;6.896;2023-02-11T15:09:02;15.25;;;4.93;;
59854;SDS011;45732;52.850;6.896;2023-02-11T15:11:32;15.18;;;4.28;;
59854;SDS011;45732;52.850;6.896;2023-02-11T15:14:10;12.68;;;4.53;;
59854;SDS011;45732;52.850;6.896;2023-02-11T15:16:43;13.75;;;4.28;;
59854;SDS011;45732;52.850;6.896;2023-02-11T15:19:15;16.50;;;4.75;;
59854;SDS011;45732;52.850;6.896;2023-02-11T15:21:52;14.27;;;4.38;;
59854;SDS011;45732;52.850;6.896;2023-02-11T15:24:23;13.18;;;5.47;;
59854;SDS011;45732;52.850;6.896;2023-02-11T15:26:56;16.35;;;4.70;;
59854;SDS011;45732;52.850;6.896;2023-02-11T15:29:38;18.50;;;5.20;;
59854;SDS011;45732;52.850;6.896;2023-02-11T15:34:42;14.63;;;4.60;;
59854;SDS011;45732;52.850;6.896;2023-02-11T15:37:13;12.68;;;4.38;;
59854;SDS011;45732;52.850;6.896;2023-02-11T15:39:49;18.02;;;4.63;;
59854;SDS011;45732;52.850;6.896;2023-02-11T15:47:38;18.75;;;4.75;;
59854;SDS011;45732;52.850;6.896;2023-02-11T15:50:06;16.13;;;4.43;;
59854;SDS011;45732;52.850;6.896;2023-02-11T15:52:43;13.52;;;5.25;;
59854;SDS011;45732;52.850;6.896;2023-02-11T15:55:11;15.63;;;4.60;;
59854;SDS011;45732;52.850;6.896;2023-02-11T15:57:46;14.02;;;4.22;;
59854;SDS011;45732;52.850;6.896;2023-02-11T16:00:18;16.20;;;4.80;;
59854;SDS011;45732;52.850;6.896;2023-02-11T16:02:45;16.33;;;4.03;;
59854;SDS011;45732;52.850;6.896;2023-02-11T16:05:28;17.05;;;4.35;;
59854;SDS011;45732;52.850;6.896;2023-02-11T16:07:57;14.82;;;4.15;;
59854;SDS011;45732;52.850;6.896;2023-02-11T16:12:52;11.73;;;3.67;;
59854;SDS011;45732;52.850;6.896;2023-02-11T16:17:53;15.20;;;4.22;;
59854;SDS011;45732;52.850;6.896;2023-02-11T16:20:19;14.13;;;3.70;;
59854;SDS011;45732;52.850;6.896;2023-02-11T16:22:45;15.40;;;4.45;;
59854;SDS011;45732;52.850;6.896;2023-02-11T16:25:18;17.38;;;4.68;;
59854;SDS011;45732;52.850;6.896;2023-02-11T16:27:50;15.75;;;4.00;;
59854;SDS011;45732;52.850;6.896;2023-02-11T16:32:55;13.45;;;4.07;;
59854;SDS011;45732;52.850;6.896;2023-02-11T16:35:20;12.27;;;3.95;;
59854;SDS011;45732;52.850;6.896;2023-02-11T16:37:46;13.25;;;3.90;;
59854;SDS011;45732;52.850;6.896;2023-02-11T16:40:12;14.73;;;3.90;;
59854;SDS011;45732;52.850;6.896;2023-02-11T16:42:38;15.50;;;4.03;;
59854;SDS011;45732;52.850;6.896;2023-02-11T16:45:04;12.40;;;3.92;;
59854;SDS011;45732;52.850;6.896;2023-02-11T16:47:30;14.15;;;3.70;;
59854;SDS011;45732;52.850;6.896;2023-02-11T16:49:57;16.65;;;3.90;;
59854;SDS011;45732;52.850;6.896;2023-02-11T16:52:24;15.80;;;3.88;;
59854;SDS011;45732;52.850;6.896;2023-02-11T16:54:50;13.57;;;3.70;;
59854;SDS011;45732;52.850;6.896;2023-02-11T16:57:17;15.05;;;3.40;;
59854;SDS011;45732;52.850;6.896;2023-02-11T16:59:45;13.20;;;3.42;;
59854;SDS011;45732;52.850;6.896;2023-02-11T17:02:13;14.98;;;3.85;;
59854;SDS011;45732;52.850;6.896;2023-02-11T17:07:09;17.27;;;4.22;;
59854;SDS011;45732;52.850;6.896;2023-02-11T17:09:35;11.88;;;3.45;;
59854;SDS011;45732;52.850;6.896;2023-02-11T17:12:01;12.55;;;4.00;;
59854;SDS011;45732;52.850;6.896;2023-02-11T17:14:27;15.20;;;3.80;;
59854;SDS011;45732;52.850;6.896;2023-02-11T17:16:53;15.38;;;3.90;;
59854;SDS011;45732;52.850;6.896;2023-02-11T17:19:19;14.85;;;3.85;;
59854;SDS011;45732;52.850;6.896;2023-02-11T17:21:46;11.32;;;3.60;;
59854;SDS011;45732;52.850;6.896;2023-02-11T17:24:14;11.10;;;3.63;;
59854;SDS011;45732;52.850;6.896;2023-02-11T17:26:41;13.88;;;3.47;;
59854;SDS011;45732;52.850;6.896;2023-02-11T17:29:09;12.65;;;3.53;;